sensor_id;sensor_type;location;lat;lon;timestamp;pressure;altitude;pressure_sealevel;temperature;humidity
14902;BME280;7542;49.078;9.194;2023-03-13T00:00:20;98112.06;;;24.90;33.99
14902;BME280;7542;49.078;9.194;2023-03-13T00:01:32;98116.59;;;24.95;33.85
14902;BME280;7542;49.078;9.194;2023-03-13T00:02:35;98115.56;;;24.91;33.92
14902;BME280;7542;49.078;9.194;2023-03-13T00:03:37;98107.22;;;24.92;33.89
14902;BME280;7542;49.078;9.194;2023-03-13T00:04:39;98115.28;;;24.92;33.83
14902;BME280;7542;49.078;9.194;2023-03-13T00:05:41;98109.91;;;24.92;33.67
14902;BME280;7542;49.078;9.194;2023-03-13T00:06:43;98109.41;;;24.90;33.78
14902;BME280;7542;49.078;9.194;2023-03-13T00:07:44;98108.84;;;24.93;33.58
14902;BME280;7542;49.078;9.194;2023-03-13T00:08:46;98107.75;;;24.94;33.85
14902;BME280;7542;49.078;9.194;2023-03-13T00:09:48;98111.81;;;24.92;33.92
14902;BME280;7542;49.078;9.194;2023-03-13T00:10:50;98107.75;;;24.94;33.75
14902;BME280;7542;49.078;9.194;2023-03-13T00:11:52;98106.44;;;24.97;33.54
14902;BME280;7542;49.078;9.194;2023-03-13T00:12:54;98104.78;;;24.96;33.66
14902;BME280;7542;49.078;9.194;2023-03-13T00:13:59;98110.44;;;24.94;33.71
14902;BME280;7542;49.078;9.194;2023-03-13T00:15:01;98111.78;;;24.97;33.71
14902;BME280;7542;49.078;9.194;2023-03-13T00:16:07;98102.91;;;24.96;33.78
14902;BME280;7542;49.078;9.194;2023-03-13T00:17:09;98102.91;;;24.96;33.75
14902;BME280;7542;49.078;9.194;2023-03-13T00:18:11;98099.19;;;24.97;33.41
14902;BME280;7542;49.078;9.194;2023-03-13T00:19:14;98092.47;;;24.95;33.73
14902;BME280;7542;49.078;9.194;2023-03-13T00:20:16;98093.03;;;24.97;33.60
14902;BME280;7542;49.078;9.194;2023-03-13T00:21:21;98091.66;;;24.99;33.65
14902;BME280;7542;49.078;9.194;2023-03-13T00:22:23;98095.16;;;25.00;33.66
14902;BME280;7542;49.078;9.194;2023-03-13T00:23:25;98094.06;;;25.01;33.68
14902;BME280;7542;49.078;9.194;2023-03-13T00:24:27;98089.78;;;25.00;33.52
14902;BME280;7542;49.078;9.194;2023-03-13T00:25:29;98092.75;;;24.98;33.60
14902;BME280;7542;49.078;9.194;2023-03-13T00:26:31;98080.94;;;24.99;33.97
14902;BME280;7542;49.078;9.194;2023-03-13T00:27:33;98089.78;;;25.00;33.35
14902;BME280;7542;49.078;9.194;2023-03-13T00:28:38;98095.16;;;25.00;33.48
14902;BME280;7542;49.078;9.194;2023-03-13T00:29:40;98088.19;;;24.99;33.58
14902;BME280;7542;49.078;9.194;2023-03-13T00:30:42;98091.38;;;25.01;33.56
14902;BME280;7542;49.078;9.194;2023-03-13T00:31:44;98078.25;;;24.99;33.26
14902;BME280;7542;49.078;9.194;2023-03-13T00:32:46;98081.47;;;25.01;33.67
14902;BME280;7542;49.078;9.194;2023-03-13T00:33:52;98088.69;;;25.01;33.38
14902;BME280;7542;49.078;9.194;2023-03-13T00:34:55;98085.22;;;25.00;33.58
14902;BME280;7542;49.078;9.194;2023-03-13T00:36:02;98079.31;;;25.03;33.39
14902;BME280;7542;49.078;9.194;2023-03-13T00:37:04;98075.03;;;25.02;33.49
14902;BME280;7542;49.078;9.194;2023-03-13T00:38:06;98068.31;;;25.05;33.55
14902;BME280;7542;49.078;9.194;2023-03-13T00:39:08;98072.88;;;25.04;33.52
14902;BME280;7542;49.078;9.194;2023-03-13T00:40:11;98071.78;;;25.05;33.46
14902;BME280;7542;49.078;9.194;2023-03-13T00:41:16;98068.03;;;25.06;33.52
14902;BME280;7542;49.078;9.194;2023-03-13T00:42:21;98069.13;;;25.05;33.11
14902;BME280;7542;49.078;9.194;2023-03-13T00:43:23;98061.06;;;25.05;33.16
14902;BME280;7542;49.078;9.194;2023-03-13T00:44:24;98065.09;;;25.03;33.24
14902;BME280;7542;49.078;9.194;2023-03-13T00:45:26;98060.53;;;25.03;33.24
14902;BME280;7542;49.078;9.194;2023-03-13T00:46:29;98062.16;;;25.04;33.32
14902;BME280;7542;49.078;9.194;2023-03-13T00:47:31;98059.72;;;25.08;33.19
14902;BME280;7542;49.078;9.194;2023-03-13T00:48:33;98054.38;;;25.03;33.47
14902;BME280;7542;49.078;9.194;2023-03-13T00:49:35;98050.34;;;25.05;33.55
14902;BME280;7542;49.078;9.194;2023-03-13T00:50:37;98057.56;;;25.10;33.19
14902;BME280;7542;49.078;9.194;2023-03-13T00:51:39;98055.41;;;25.07;33.10
14902;BME280;7542;49.078;9.194;2023-03-13T00:52:40;98058.09;;;25.12;33.37
14902;BME280;7542;49.078;9.194;2023-03-13T00:53:43;98050.88;;;25.07;33.41
14902;BME280;7542;49.078;9.194;2023-03-13T00:54:45;98047.91;;;25.09;33.45
14902;BME280;7542;49.078;9.194;2023-03-13T00:56:07;98059.13;;;25.16;33.28
14902;BME280;7542;49.078;9.194;2023-03-13T00:57:09;98050.31;;;25.10;33.19
14902;BME280;7542;49.078;9.194;2023-03-13T00:58:11;98046.31;;;25.08;33.42
14902;BME280;7542;49.078;9.194;2023-03-13T00:59:13;98046.03;;;25.09;33.38
14902;BME280;7542;49.078;9.194;2023-03-13T01:00:16;98040.97;;;25.08;33.43
14902;BME280;7542;49.078;9.194;2023-03-13T01:01:25;98043.59;;;25.13;32.97
14902;BME280;7542;49.078;9.194;2023-03-13T01:02:27;98035.56;;;25.13;33.18
14902;BME280;7542;49.078;9.194;2023-03-13T01:03:29;98034.47;;;25.14;33.25
14902;BME280;7542;49.078;9.194;2023-03-13T01:04:31;98034.19;;;25.15;33.02
14902;BME280;7542;49.078;9.194;2023-03-13T01:05:32;98025.63;;;25.13;33.01
14902;BME280;7542;49.078;9.194;2023-03-13T01:06:37;98034.97;;;25.16;33.08
14902;BME280;7542;49.078;9.194;2023-03-13T01:07:41;98028.34;;;25.08;33.27
14902;BME280;7542;49.078;9.194;2023-03-13T01:08:44;98032.34;;;25.11;33.25
14902;BME280;7542;49.078;9.194;2023-03-13T01:09:45;98025.91;;;25.12;33.35
14902;BME280;7542;49.078;9.194;2023-03-13T01:10:47;98024.28;;;25.11;33.24
14902;BME280;7542;49.078;9.194;2023-03-13T01:11:49;98024.00;;;25.12;33.43
14902;BME280;7542;49.078;9.194;2023-03-13T01:12:51;98019.97;;;25.15;33.29
14902;BME280;7542;49.078;9.194;2023-03-13T01:14:01;98018.38;;;25.14;33.12
14902;BME280;7542;49.078;9.194;2023-03-13T01:15:03;98005.75;;;25.14;32.98
14902;BME280;7542;49.078;9.194;2023-03-13T01:16:11;98011.91;;;25.15;33.15
14902;BME280;7542;49.078;9.194;2023-03-13T01:17:13;98014.59;;;25.15;32.89
14902;BME280;7542;49.078;9.194;2023-03-13T01:18:15;98009.81;;;25.12;33.01
14902;BME280;7542;49.078;9.194;2023-03-13T01:19:18;98005.75;;;25.14;32.95
14902;BME280;7542;49.078;9.194;2023-03-13T01:20:20;98017.00;;;25.17;32.78
14902;BME280;7542;49.078;9.194;2023-03-13T01:21:23;98010.03;;;25.15;32.87
14902;BME280;7542;49.078;9.194;2023-03-13T01:22:25;98007.63;;;25.14;32.98
14902;BME280;7542;49.078;9.194;2023-03-13T01:23:28;98011.69;;;25.11;33.05
14902;BME280;7542;49.078;9.194;2023-03-13T01:24:30;98005.00;;;25.09;32.89
14902;BME280;7542;49.078;9.194;2023-03-13T01:25:36;98003.34;;;25.13;32.66
14902;BME280;7542;49.078;9.194;2023-03-13T01:26:38;98010.09;;;25.10;32.60
14902;BME280;7542;49.078;9.194;2023-03-13T01:27:40;97994.50;;;25.12;32.87
14902;BME280;7542;49.078;9.194;2023-03-13T01:28:43;97997.25;;;25.07;32.79
14902;BME280;7542;49.078;9.194;2023-03-13T01:29:45;97998.28;;;25.06;32.70
14902;BME280;7542;49.078;9.194;2023-03-13T01:30:47;97991.59;;;25.04;32.72
14902;BME280;7542;49.078;9.194;2023-03-13T01:31:49;98001.25;;;25.05;32.85
14902;BME280;7542;49.078;9.194;2023-03-13T01:32:51;97994.00;;;25.05;32.66
14902;BME280;7542;49.078;9.194;2023-03-13T01:33:58;97994.56;;;25.02;32.97
14902;BME280;7542;49.078;9.194;2023-03-13T01:35:00;97995.09;;;25.04;32.85
14902;BME280;7542;49.078;9.194;2023-03-13T01:36:03;97994.56;;;25.02;32.58
14902;BME280;7542;49.078;9.194;2023-03-13T01:37:05;97991.34;;;25.00;32.88
14902;BME280;7542;49.078;9.194;2023-03-13T01:38:07;97984.91;;;25.01;32.62
14902;BME280;7542;49.078;9.194;2023-03-13T01:39:09;97979.00;;;24.99;32.69
14902;BME280;7542;49.078;9.194;2023-03-13T01:40:11;97972.31;;;25.02;32.79
14902;BME280;7542;49.078;9.194;2023-03-13T01:41:13;97977.69;;;25.02;32.57
14902;BME280;7542;49.078;9.194;2023-03-13T01:42:15;97974.72;;;24.98;32.63
14902;BME280;7542;49.078;9.194;2023-03-13T01:43:29;97974.19;;;25.01;32.52
14902;BME280;7542;49.078;9.194;2023-03-13T01:44:56;97974.72;;;25.03;32.38
14902;BME280;7542;49.078;9.194;2023-03-13T01:47:14;97963.44;;;24.96;32.54
14902;BME280;7542;49.078;9.194;2023-03-13T01:48:16;97962.13;;;24.94;32.88
14902;BME280;7542;49.078;9.194;2023-03-13T01:49:28;97957.56;;;24.94;32.62
14902;BME280;7542;49.078;9.194;2023-03-13T01:50:34;97959.44;;;24.94;32.49
14902;BME280;7542;49.078;9.194;2023-03-13T01:51:43;97954.38;;;24.92;32.71
14902;BME280;7542;49.078;9.194;2023-03-13T01:52:46;97953.84;;;24.90;32.77
14902;BME280;7542;49.078;9.194;2023-03-13T01:54:10;97953.81;;;24.95;32.50
14902;BME280;7542;49.078;9.194;2023-03-13T01:55:15;97947.16;;;24.88;32.70
14902;BME280;7542;49.078;9.194;2023-03-13T01:56:29;97946.88;;;24.89;32.86
14902;BME280;7542;49.078;9.194;2023-03-13T01:57:40;97948.19;;;24.92;32.69
14902;BME280;7542;49.078;9.194;2023-03-13T01:58:47;97948.78;;;24.89;32.73
14902;BME280;7542;49.078;9.194;2023-03-13T01:59:58;97942.09;;;24.86;32.69
14902;BME280;7542;49.078;9.194;2023-03-13T02:01:02;97944.78;;;24.86;32.55
14902;BME280;7542;49.078;9.194;2023-03-13T02:02:05;97939.94;;;24.83;32.60
14902;BME280;7542;49.078;9.194;2023-03-13T02:03:12;97936.97;;;24.84;32.82
14902;BME280;7542;49.078;9.194;2023-03-13T02:04:20;97936.75;;;24.81;32.66
14902;BME280;7542;49.078;9.194;2023-03-13T02:05:26;97937.03;;;24.79;32.61
14902;BME280;7542;49.078;9.194;2023-03-13T02:06:32;97931.94;;;24.78;32.61
14902;BME280;7542;49.078;9.194;2023-03-13T02:07:50;97934.63;;;24.78;32.65
14902;BME280;7542;49.078;9.194;2023-03-13T02:09:09;97929.78;;;24.80;32.51
14902;BME280;7542;49.078;9.194;2023-03-13T02:10:15;97928.97;;;24.79;32.64
14902;BME280;7542;49.078;9.194;2023-03-13T02:12:40;97925.78;;;24.77;32.91
14902;BME280;7542;49.078;9.194;2023-03-13T02:13:42;97923.91;;;24.73;32.68
14902;BME280;7542;49.078;9.194;2023-03-13T02:14:48;97920.16;;;24.74;32.53
14902;BME280;7542;49.078;9.194;2023-03-13T02:15:51;97918.53;;;24.73;32.80
14902;BME280;7542;49.078;9.194;2023-03-13T02:16:54;97921.78;;;24.70;32.80
14902;BME280;7542;49.078;9.194;2023-03-13T02:17:56;97917.50;;;24.69;32.86
14902;BME280;7542;49.078;9.194;2023-03-13T02:19:02;97915.63;;;24.69;32.77
14902;BME280;7542;49.078;9.194;2023-03-13T02:20:09;97912.16;;;24.64;32.69
14902;BME280;7542;49.078;9.194;2023-03-13T02:21:31;97915.34;;;24.71;32.76
14902;BME280;7542;49.078;9.194;2023-03-13T02:22:48;97913.75;;;24.70;32.75
14902;BME280;7542;49.078;9.194;2023-03-13T02:24:08;97910.50;;;24.73;32.68
14902;BME280;7542;49.078;9.194;2023-03-13T02:26:23;97908.16;;;24.66;32.76
14902;BME280;7542;49.078;9.194;2023-03-13T02:27:25;97906.28;;;24.62;32.41
14902;BME280;7542;49.078;9.194;2023-03-13T02:28:32;97911.38;;;24.63;32.67
14902;BME280;7542;49.078;9.194;2023-03-13T02:29:35;97903.09;;;24.60;32.80
14902;BME280;7542;49.078;9.194;2023-03-13T02:30:38;97903.88;;;24.60;32.62
14902;BME280;7542;49.078;9.194;2023-03-13T02:31:42;97905.19;;;24.63;32.61
14902;BME280;7542;49.078;9.194;2023-03-13T02:32:45;97896.69;;;24.55;32.92
14902;BME280;7542;49.078;9.194;2023-03-13T02:33:47;97897.72;;;24.60;32.90
14902;BME280;7542;49.078;9.194;2023-03-13T02:34:53;97907.38;;;24.61;32.68
14902;BME280;7542;49.078;9.194;2023-03-13T02:35:59;97897.72;;;24.60;32.72
14902;BME280;7542;49.078;9.194;2023-03-13T02:37:05;97891.56;;;24.59;32.85
14902;BME280;7542;49.078;9.194;2023-03-13T02:38:17;97888.09;;;24.58;32.70
14902;BME280;7542;49.078;9.194;2023-03-13T02:39:22;97888.09;;;24.58;32.58
14902;BME280;7542;49.078;9.194;2023-03-13T02:40:35;97883.28;;;24.55;32.92
14902;BME280;7542;49.078;9.194;2023-03-13T02:41:41;97881.69;;;24.54;32.57
14902;BME280;7542;49.078;9.194;2023-03-13T02:42:44;97883.56;;;24.54;32.74
14902;BME280;7542;49.078;9.194;2023-03-13T02:43:46;97883.00;;;24.52;32.82
14902;BME280;7542;49.078;9.194;2023-03-13T02:44:48;97878.75;;;24.51;32.76
14902;BME280;7542;49.078;9.194;2023-03-13T02:46:10;97885.16;;;24.55;33.07
14902;BME280;7542;49.078;9.194;2023-03-13T02:47:24;97876.31;;;24.54;32.54
14902;BME280;7542;49.078;9.194;2023-03-13T02:48:39;97879.53;;;24.51;32.67
14902;BME280;7542;49.078;9.194;2023-03-13T02:49:41;97876.91;;;24.46;32.75
14902;BME280;7542;49.078;9.194;2023-03-13T02:50:43;97874.75;;;24.48;32.79
14902;BME280;7542;49.078;9.194;2023-03-13T02:51:45;97870.50;;;24.42;32.63
14902;BME280;7542;49.078;9.194;2023-03-13T02:52:53;97871.31;;;24.43;32.70
14902;BME280;7542;49.078;9.194;2023-03-13T02:54:02;97871.81;;;24.45;32.56
14902;BME280;7542;49.078;9.194;2023-03-13T02:55:12;97863.78;;;24.45;32.61
14902;BME280;7542;49.078;9.194;2023-03-13T02:56:19;97860.31;;;24.44;32.55
14902;BME280;7542;49.078;9.194;2023-03-13T02:57:22;97861.38;;;24.43;32.57
14902;BME280;7542;49.078;9.194;2023-03-13T02:58:24;97853.59;;;24.42;32.66
14902;BME280;7542;49.078;9.194;2023-03-13T02:59:27;97863.50;;;24.41;32.72
14902;BME280;7542;49.078;9.194;2023-03-13T03:00:29;97851.75;;;24.37;32.51
14902;BME280;7542;49.078;9.194;2023-03-13T03:01:31;97855.47;;;24.41;32.54
14902;BME280;7542;49.078;9.194;2023-03-13T03:02:33;97856.03;;;24.38;32.78
14902;BME280;7542;49.078;9.194;2023-03-13T03:03:35;97855.75;;;24.40;32.60
14902;BME280;7542;49.078;9.194;2023-03-13T03:04:40;97850.97;;;24.37;32.59
14902;BME280;7542;49.078;9.194;2023-03-13T03:05:42;97844.81;;;24.36;32.62
14902;BME280;7542;49.078;9.194;2023-03-13T03:06:43;97843.19;;;24.35;32.61
14902;BME280;7542;49.078;9.194;2023-03-13T03:07:45;97846.41;;;24.37;32.72
14902;BME280;7542;49.078;9.194;2023-03-13T03:08:47;97844.00;;;24.36;32.52
14902;BME280;7542;49.078;9.194;2023-03-13T03:09:49;97841.31;;;24.36;32.72
14902;BME280;7542;49.078;9.194;2023-03-13T03:10:51;97834.66;;;24.33;32.62
14902;BME280;7542;49.078;9.194;2023-03-13T03:11:53;97842.69;;;24.33;32.51
14902;BME280;7542;49.078;9.194;2023-03-13T03:12:54;97838.66;;;24.36;32.52
14902;BME280;7542;49.078;9.194;2023-03-13T03:13:56;97840.81;;;24.34;32.71
14902;BME280;7542;49.078;9.194;2023-03-13T03:14:58;97842.13;;;24.31;32.77
14902;BME280;7542;49.078;9.194;2023-03-13T03:16:12;97842.91;;;24.37;32.40
14902;BME280;7542;49.078;9.194;2023-03-13T03:17:24;97840.81;;;24.34;32.72
14902;BME280;7542;49.078;9.194;2023-03-13T03:18:26;97832.75;;;24.34;32.79
14902;BME280;7542;49.078;9.194;2023-03-13T03:19:28;97835.16;;;24.30;32.64
14902;BME280;7542;49.078;9.194;2023-03-13T03:20:29;97843.47;;;24.28;32.64
14902;BME280;7542;49.078;9.194;2023-03-13T03:21:32;97841.59;;;24.29;32.62
14902;BME280;7542;49.078;9.194;2023-03-13T03:22:34;97838.66;;;24.31;32.61
14902;BME280;7542;49.078;9.194;2023-03-13T03:23:39;97847.50;;;24.31;32.52
14902;BME280;7542;49.078;9.194;2023-03-13T03:24:40;97850.69;;;24.28;32.66
14902;BME280;7542;49.078;9.194;2023-03-13T03:25:42;97851.25;;;24.25;32.57
14902;BME280;7542;49.078;9.194;2023-03-13T03:26:44;97852.88;;;24.26;32.64
14902;BME280;7542;49.078;9.194;2023-03-13T03:27:47;97843.50;;;24.23;33.08
14902;BME280;7542;49.078;9.194;2023-03-13T03:28:50;97842.44;;;24.24;32.69
14902;BME280;7542;49.078;9.194;2023-03-13T03:29:52;97839.75;;;24.24;32.54
14902;BME280;7542;49.078;9.194;2023-03-13T03:30:54;97834.09;;;24.26;32.58
14902;BME280;7542;49.078;9.194;2023-03-13T03:31:56;97832.22;;;24.26;32.26
14902;BME280;7542;49.078;9.194;2023-03-13T03:32:58;97823.97;;;24.23;32.75
14902;BME280;7542;49.078;9.194;2023-03-13T03:34:00;97823.44;;;24.21;32.55
14902;BME280;7542;49.078;9.194;2023-03-13T03:35:03;97822.34;;;24.22;32.68
14902;BME280;7542;49.078;9.194;2023-03-13T03:36:12;97822.59;;;24.25;32.21
14902;BME280;7542;49.078;9.194;2023-03-13T03:37:14;97820.47;;;24.22;32.66
14902;BME280;7542;49.078;9.194;2023-03-13T03:38:16;97818.88;;;24.21;32.64
14902;BME280;7542;49.078;9.194;2023-03-13T03:39:18;97823.44;;;24.21;32.66
14902;BME280;7542;49.078;9.194;2023-03-13T03:40:20;97815.94;;;24.18;32.64
14902;BME280;7542;49.078;9.194;2023-03-13T03:41:22;97813.25;;;24.23;32.49
14902;BME280;7542;49.078;9.194;2023-03-13T03:42:24;97819.41;;;24.23;32.67
14902;BME280;7542;49.078;9.194;2023-03-13T03:43:26;97812.97;;;24.19;32.70
14902;BME280;7542;49.078;9.194;2023-03-13T03:44:28;97812.16;;;24.19;32.40
14902;BME280;7542;49.078;9.194;2023-03-13T03:45:30;97812.16;;;24.19;32.59
14902;BME280;7542;49.078;9.194;2023-03-13T03:46:32;97817.25;;;24.20;32.72
14902;BME280;7542;49.078;9.194;2023-03-13T03:47:34;97812.97;;;24.19;32.40
14902;BME280;7542;49.078;9.194;2023-03-13T03:48:36;97807.63;;;24.19;32.38
14902;BME280;7542;49.078;9.194;2023-03-13T03:49:38;97813.53;;;24.16;32.60
14902;BME280;7542;49.078;9.194;2023-03-13T03:50:40;97808.47;;;24.15;32.38
14902;BME280;7542;49.078;9.194;2023-03-13T03:51:42;97808.47;;;24.15;32.70
14902;BME280;7542;49.078;9.194;2023-03-13T03:52:44;97811.94;;;24.15;32.39
14902;BME280;7542;49.078;9.194;2023-03-13T03:53:46;97805.78;;;24.15;32.67
14902;BME280;7542;49.078;9.194;2023-03-13T03:54:47;97808.19;;;24.16;32.40
14902;BME280;7542;49.078;9.194;2023-03-13T03:55:49;97803.09;;;24.15;32.64
14902;BME280;7542;49.078;9.194;2023-03-13T03:56:51;97799.09;;;24.12;32.47
14902;BME280;7542;49.078;9.194;2023-03-13T03:57:53;97800.97;;;24.12;32.84
14902;BME280;7542;49.078;9.194;2023-03-13T03:58:55;97805.25;;;24.13;32.65
14902;BME280;7542;49.078;9.194;2023-03-13T03:59:57;97796.44;;;24.12;32.60
14902;BME280;7542;49.078;9.194;2023-03-13T04:00:59;97799.09;;;24.12;32.64
14902;BME280;7542;49.078;9.194;2023-03-13T04:02:01;97793.75;;;24.12;32.53
14902;BME280;7542;49.078;9.194;2023-03-13T04:03:03;97799.13;;;24.07;32.68
14902;BME280;7542;49.078;9.194;2023-03-13T04:04:05;97797.25;;;24.08;32.74
14902;BME280;7542;49.078;9.194;2023-03-13T04:05:07;97795.34;;;24.08;32.74
14902;BME280;7542;49.078;9.194;2023-03-13T04:06:09;97796.72;;;24.06;32.54
14902;BME280;7542;49.078;9.194;2023-03-13T04:07:11;97795.34;;;24.08;32.55
14902;BME280;7542;49.078;9.194;2023-03-13T04:08:13;97794.84;;;24.06;32.45
14902;BME280;7542;49.078;9.194;2023-03-13T04:09:15;97799.13;;;24.07;32.49
14902;BME280;7542;49.078;9.194;2023-03-13T04:10:17;97795.63;;;24.07;32.61
14902;BME280;7542;49.078;9.194;2023-03-13T04:11:19;97789.47;;;24.06;32.57
14902;BME280;7542;49.078;9.194;2023-03-13T04:12:21;97791.63;;;24.04;32.65
14902;BME280;7542;49.078;9.194;2023-03-13T04:13:23;97788.69;;;24.06;32.59
14902;BME280;7542;49.078;9.194;2023-03-13T04:14:24;97780.94;;;24.04;32.60
14902;BME280;7542;49.078;9.194;2023-03-13T04:15:26;97789.25;;;24.03;32.72
14902;BME280;7542;49.078;9.194;2023-03-13T04:16:28;97785.47;;;24.04;32.48
14902;BME280;7542;49.078;9.194;2023-03-13T04:17:30;97783.88;;;24.03;32.67
14902;BME280;7542;49.078;9.194;2023-03-13T04:18:32;97781.22;;;24.03;32.60
14902;BME280;7542;49.078;9.194;2023-03-13T04:19:34;97786.03;;;24.00;32.53
14902;BME280;7542;49.078;9.194;2023-03-13T04:20:36;97778.00;;;24.00;32.85
14902;BME280;7542;49.078;9.194;2023-03-13T04:21:38;97777.44;;;24.04;32.50
14902;BME280;7542;49.078;9.194;2023-03-13T04:22:40;97778.53;;;24.03;32.55
14902;BME280;7542;49.078;9.194;2023-03-13T04:23:43;97779.09;;;23.99;32.54
14902;BME280;7542;49.078;9.194;2023-03-13T04:24:45;97774.78;;;23.98;32.60
14902;BME280;7542;49.078;9.194;2023-03-13T04:25:46;97775.34;;;24.00;32.63
14902;BME280;7542;49.078;9.194;2023-03-13T04:26:48;97771.28;;;24.03;32.51
14902;BME280;7542;49.078;9.194;2023-03-13T04:27:50;97778.81;;;24.01;32.68
14902;BME280;7542;49.078;9.194;2023-03-13T04:28:52;97770.50;;;24.03;32.46
14902;BME280;7542;49.078;9.194;2023-03-13T04:29:54;97776.13;;;24.01;32.33
14902;BME280;7542;49.078;9.194;2023-03-13T04:30:55;97770.50;;;23.97;32.45
14902;BME280;7542;49.078;9.194;2023-03-13T04:31:58;97769.97;;;24.00;32.73
14902;BME280;7542;49.078;9.194;2023-03-13T04:33:00;97772.94;;;23.99;32.69
14902;BME280;7542;49.078;9.194;2023-03-13T04:34:02;97779.88;;;24.00;32.52
14902;BME280;7542;49.078;9.194;2023-03-13T04:35:04;97779.34;;;23.98;32.73
14902;BME280;7542;49.078;9.194;2023-03-13T04:36:07;97778.28;;;23.99;32.49
14902;BME280;7542;49.078;9.194;2023-03-13T04:37:09;97783.09;;;23.97;32.61
14902;BME280;7542;49.078;9.194;2023-03-13T04:38:11;97767.84;;;23.97;32.58
14902;BME280;7542;49.078;9.194;2023-03-13T04:39:13;97775.34;;;24.00;32.55
14902;BME280;7542;49.078;9.194;2023-03-13T04:40:14;97776.16;;;23.96;32.61
14902;BME280;7542;49.078;9.194;2023-03-13T04:41:16;97773.97;;;23.98;32.51
14902;BME280;7542;49.078;9.194;2023-03-13T04:42:18;97781.50;;;23.96;32.54
14902;BME280;7542;49.078;9.194;2023-03-13T04:43:20;97776.16;;;23.96;32.62
14902;BME280;7542;49.078;9.194;2023-03-13T04:44:22;97780.69;;;23.95;32.62
14902;BME280;7542;49.078;9.194;2023-03-13T04:45:24;97772.16;;;23.93;32.62
14902;BME280;7542;49.078;9.194;2023-03-13T04:46:26;97774.25;;;23.96;32.61
14902;BME280;7542;49.078;9.194;2023-03-13T04:47:28;97772.94;;;23.94;32.55
14902;BME280;7542;49.078;9.194;2023-03-13T04:48:30;97772.16;;;23.93;32.55
14902;BME280;7542;49.078;9.194;2023-03-13T04:49:31;97780.19;;;23.93;32.69
14902;BME280;7542;49.078;9.194;2023-03-13T04:50:33;97786.84;;;23.96;32.50
14902;BME280;7542;49.078;9.194;2023-03-13T04:51:35;97781.25;;;23.92;32.69
14902;BME280;7542;49.078;9.194;2023-03-13T04:52:37;97780.19;;;23.93;32.60
14902;BME280;7542;49.078;9.194;2023-03-13T04:53:39;97780.47;;;23.92;32.69
14902;BME280;7542;49.078;9.194;2023-03-13T04:54:41;97782.06;;;23.93;32.29
14902;BME280;7542;49.078;9.194;2023-03-13T04:55:43;97778.34;;;23.89;32.77
14902;BME280;7542;49.078;9.194;2023-03-13T04:56:44;97779.94;;;23.90;32.65
14902;BME280;7542;49.078;9.194;2023-03-13T04:57:46;97781.81;;;23.89;32.73
14902;BME280;7542;49.078;9.194;2023-03-13T04:58:48;97774.31;;;23.91;32.74
14902;BME280;7542;49.078;9.194;2023-03-13T04:59:50;97775.66;;;23.89;32.73
14902;BME280;7542;49.078;9.194;2023-03-13T05:00:53;97778.88;;;23.91;32.51
14902;BME280;7542;49.078;9.194;2023-03-13T05:01:55;97771.91;;;23.90;32.49
14902;BME280;7542;49.078;9.194;2023-03-13T05:02:57;97772.44;;;23.92;32.56
14902;BME280;7542;49.078;9.194;2023-03-13T05:03:59;97769.22;;;23.90;32.54
14902;BME280;7542;49.078;9.194;2023-03-13T05:05:01;97771.91;;;23.90;32.65
14902;BME280;7542;49.078;9.194;2023-03-13T05:06:03;97767.06;;;23.92;32.53
14902;BME280;7542;49.078;9.194;2023-03-13T05:07:05;97771.13;;;23.89;32.59
14902;BME280;7542;49.078;9.194;2023-03-13T05:08:07;97768.44;;;23.89;32.86
14902;BME280;7542;49.078;9.194;2023-03-13T05:09:11;97760.91;;;23.91;32.77
14902;BME280;7542;49.078;9.194;2023-03-13T05:10:13;97761.47;;;23.88;32.59
14902;BME280;7542;49.078;9.194;2023-03-13T05:11:15;97767.09;;;23.87;32.79
14902;BME280;7542;49.078;9.194;2023-03-13T05:12:17;97770.31;;;23.89;32.91
14902;BME280;7542;49.078;9.194;2023-03-13T05:13:19;97761.72;;;23.87;32.75
14902;BME280;7542;49.078;9.194;2023-03-13T05:14:21;97763.59;;;23.86;32.65
14902;BME280;7542;49.078;9.194;2023-03-13T05:15:23;97757.72;;;23.89;32.76
14902;BME280;7542;49.078;9.194;2023-03-13T05:16:24;97756.94;;;23.89;32.69
14902;BME280;7542;49.078;9.194;2023-03-13T05:17:27;97765.22;;;23.87;32.61
14902;BME280;7542;49.078;9.194;2023-03-13T05:18:28;97751.81;;;23.87;32.84
14902;BME280;7542;49.078;9.194;2023-03-13T05:19:30;97751.31;;;23.85;32.61
14902;BME280;7542;49.078;9.194;2023-03-13T05:20:32;97749.16;;;23.87;32.59
14902;BME280;7542;49.078;9.194;2023-03-13T05:21:34;97750.22;;;23.86;32.82
14902;BME280;7542;49.078;9.194;2023-03-13T05:22:37;97753.69;;;23.87;32.62
14902;BME280;7542;49.078;9.194;2023-03-13T05:23:39;97755.84;;;23.90;32.67
14902;BME280;7542;49.078;9.194;2023-03-13T05:24:41;97755.28;;;23.88;32.94
14902;BME280;7542;49.078;9.194;2023-03-13T05:25:43;97753.97;;;23.90;32.68
14902;BME280;7542;49.078;9.194;2023-03-13T05:26:45;97753.69;;;23.87;32.61
14902;BME280;7542;49.078;9.194;2023-03-13T05:27:46;97746.75;;;23.86;32.75
14902;BME280;7542;49.078;9.194;2023-03-13T05:28:48;97749.94;;;23.88;32.62
14902;BME280;7542;49.078;9.194;2023-03-13T05:29:50;97746.47;;;23.87;32.52
14902;BME280;7542;49.078;9.194;2023-03-13T05:30:52;97748.63;;;23.85;32.68
14902;BME280;7542;49.078;9.194;2023-03-13T05:31:54;97746.47;;;23.87;32.62
14902;BME280;7542;49.078;9.194;2023-03-13T05:32:56;97751.03;;;23.87;32.57
14902;BME280;7542;49.078;9.194;2023-03-13T05:33:58;97749.69;;;23.89;32.83
14902;BME280;7542;49.078;9.194;2023-03-13T05:34:59;97755.28;;;23.88;32.64
14902;BME280;7542;49.078;9.194;2023-03-13T05:36:01;97757.44;;;23.86;32.90
14902;BME280;7542;49.078;9.194;2023-03-13T05:37:03;97757.19;;;23.87;32.49
14902;BME280;7542;49.078;9.194;2023-03-13T05:38:05;97749.69;;;23.84;32.38
14902;BME280;7542;49.078;9.194;2023-03-13T05:39:07;97751.81;;;23.87;32.61
14902;BME280;7542;49.078;9.194;2023-03-13T05:40:10;97745.66;;;23.87;32.50
14902;BME280;7542;49.078;9.194;2023-03-13T05:41:12;97744.88;;;23.86;32.73
14902;BME280;7542;49.078;9.194;2023-03-13T05:42:14;97739.78;;;23.85;32.68
14902;BME280;7542;49.078;9.194;2023-03-13T05:43:16;97740.31;;;23.87;32.80
14902;BME280;7542;49.078;9.194;2023-03-13T05:44:18;97741.09;;;23.87;32.70